CPQ854 KMAF-KSAT
Flight info
| Callsign | CPQ854 |
|---|---|
| Flight time | 0h 53m |
| Altitude | 23000 |
| Route | JCT CSI3 |
| Aircraft | DH8D/M-SDE2E3FGRUY/L |
Departure
| Time | 2026-04-26 16:19 |
|---|---|
| Airport | Midland International Air and Space Port (KMAF) |
Arrival
| Time | 2026-04-26 17:12 |
|---|---|
| Airport | San Antonio International Airport (KSAT) |
| Time | Latitude | Longitude | Altitude | Speed | Heading |
|---|---|---|---|---|---|
| 2026-04-26 15:56 | 31.93858 | -102.20713 | 2861 ft | 0 kts | 266° |
| 2026-04-26 16:09 | 31.93859 | -102.20702 | 2861 ft | 2 kts | 266° |
| 2026-04-26 16:10 | 31.93860 | -102.20685 | 2861 ft | 2 kts | 266° |
| 2026-04-26 16:10 | 31.93861 | -102.20670 | 2860 ft | 0 kts | 266° |
| 2026-04-26 16:10 | 31.93864 | -102.20657 | 2860 ft | 2 kts | 243° |
| 2026-04-26 16:10 | 31.93873 | -102.20644 | 2860 ft | 2 kts | 214° |
| 2026-04-26 16:11 | 31.93883 | -102.20638 | 2860 ft | 0 kts | 198° |
| 2026-04-26 16:11 | 31.93883 | -102.20637 | 2860 ft | 0 kts | 198° |
| 2026-04-26 16:13 | 31.93878 | -102.20640 | 2860 ft | 3 kts | 195° |
| 2026-04-26 16:13 | 31.93848 | -102.20604 | 2860 ft | 10 kts | 106° |
| 2026-04-26 16:14 | 31.93826 | -102.20498 | 2860 ft | 15 kts | 98° |
| 2026-04-26 16:14 | 31.93830 | -102.20361 | 2860 ft | 17 kts | 89° |
| 2026-04-26 16:14 | 31.93828 | -102.20062 | 2857 ft | 17 kts | 91° |
| 2026-04-26 16:15 | 31.93827 | -102.19939 | 2857 ft | 12 kts | 90° |
| 2026-04-26 16:15 | 31.93827 | -102.19852 | 2857 ft | 9 kts | 91° |
| 2026-04-26 16:15 | 31.93826 | -102.19775 | 2857 ft | 9 kts | 91° |
| 2026-04-26 16:16 | 31.93826 | -102.19576 | 2857 ft | 13 kts | 80° |
| 2026-04-26 16:16 | 31.93865 | -102.19498 | 2857 ft | 7 kts | 53° |
| 2026-04-26 16:16 | 31.93894 | -102.19450 | 2858 ft | 8 kts | 55° |
| 2026-04-26 16:16 | 31.93907 | -102.19428 | 2858 ft | 0 kts | 55° |
| 2026-04-26 16:18 | 31.93924 | -102.19411 | 2858 ft | 5 kts | 2° |
| 2026-04-26 16:18 | 31.94106 | -102.19867 | 2859 ft | 96 kts | 293° |
| 2026-04-26 16:19 | 31.94933 | -102.21997 | 3198 ft | 165 kts | 295° |
| 2026-04-26 16:19 | 31.95446 | -102.23206 | 3739 ft | 172 kts | 295° |
| 2026-04-26 16:19 | 31.96414 | -102.25320 | 4729 ft | 179 kts | 298° |
| 2026-04-26 16:20 | 31.97247 | -102.26987 | 5568 ft | 180 kts | 298° |
| 2026-04-26 16:20 | 31.97882 | -102.29890 | 6562 ft | 193 kts | 256° |
| 2026-04-26 16:20 | 31.97146 | -102.31171 | 7135 ft | 198 kts | 222° |
| 2026-04-26 16:21 | 31.95855 | -102.31733 | 7685 ft | 208 kts | 190° |
| 2026-04-26 16:21 | 31.94394 | -102.31653 | 8257 ft | 216 kts | 172° |
| 2026-04-26 16:21 | 31.93069 | -102.30770 | 8601 ft | 230 kts | 139° |
| 2026-04-26 16:21 | 31.92261 | -102.29117 | 8842 ft | 244 kts | 111° |
| 2026-04-26 16:22 | 31.91812 | -102.27140 | 9053 ft | 252 kts | 106° |
| 2026-04-26 16:22 | 31.91383 | -102.25125 | 9419 ft | 254 kts | 107° |
| 2026-04-26 16:22 | 31.90964 | -102.23118 | 9783 ft | 256 kts | 106° |
| 2026-04-26 16:22 | 31.90546 | -102.21078 | 10145 ft | 257 kts | 106° |
| 2026-04-26 16:23 | 31.90135 | -102.19040 | 10493 ft | 258 kts | 106° |
| 2026-04-26 16:23 | 31.89726 | -102.16991 | 10846 ft | 258 kts | 106° |
| 2026-04-26 16:23 | 31.89315 | -102.14939 | 11126 ft | 263 kts | 106° |
| 2026-04-26 16:23 | 31.88880 | -102.12837 | 11403 ft | 266 kts | 110° |
| 2026-04-26 16:24 | 31.88190 | -102.10816 | 11692 ft | 266 kts | 120° |
| 2026-04-26 16:24 | 31.87364 | -102.08882 | 11997 ft | 267 kts | 122° |
| 2026-04-26 16:24 | 31.86473 | -102.06938 | 12311 ft | 269 kts | 124° |
| 2026-04-26 16:24 | 31.85559 | -102.05044 | 12625 ft | 270 kts | 125° |
| 2026-04-26 16:25 | 31.84604 | -102.03133 | 12935 ft | 271 kts | 126° |
| 2026-04-26 16:25 | 31.83631 | -102.01238 | 13245 ft | 271 kts | 127° |
| 2026-04-26 16:25 | 31.82640 | -101.99338 | 13562 ft | 272 kts | 127° |
| 2026-04-26 16:25 | 31.81646 | -101.97463 | 13872 ft | 272 kts | 128° |
| 2026-04-26 16:26 | 31.80643 | -101.95588 | 14174 ft | 272 kts | 128° |
| 2026-04-26 16:26 | 31.79963 | -101.94327 | 14371 ft | 272 kts | 128° |
| 2026-04-26 16:26 | 31.78614 | -101.91838 | 14756 ft | 272 kts | 128° |
| 2026-04-26 16:26 | 31.77595 | -101.89967 | 15033 ft | 272 kts | 128° |
| 2026-04-26 16:27 | 31.76577 | -101.88102 | 15290 ft | 271 kts | 129° |
| 2026-04-26 16:27 | 31.75562 | -101.86248 | 15538 ft | 270 kts | 129° |
| 2026-04-26 16:27 | 31.74545 | -101.84396 | 15770 ft | 269 kts | 129° |
| 2026-04-26 16:27 | 31.73529 | -101.82549 | 15995 ft | 269 kts | 129° |
| 2026-04-26 16:28 | 31.72516 | -101.80709 | 16199 ft | 269 kts | 129° |
| 2026-04-26 16:28 | 31.71503 | -101.78874 | 16393 ft | 269 kts | 128° |
| 2026-04-26 16:28 | 31.70489 | -101.77035 | 16580 ft | 269 kts | 129° |
| 2026-04-26 16:28 | 31.69474 | -101.75199 | 16765 ft | 269 kts | 129° |
| 2026-04-26 16:29 | 31.68448 | -101.73347 | 16857 ft | 274 kts | 129° |
| 2026-04-26 16:29 | 31.67394 | -101.71446 | 16876 ft | 281 kts | 128° |
| 2026-04-26 16:29 | 31.66317 | -101.69503 | 16938 ft | 286 kts | 128° |
| 2026-04-26 16:29 | 31.65231 | -101.67545 | 17027 ft | 290 kts | 128° |
| 2026-04-26 16:30 | 31.64120 | -101.65540 | 17140 ft | 293 kts | 128° |
| 2026-04-26 16:30 | 31.63005 | -101.63527 | 17264 ft | 295 kts | 128° |
| 2026-04-26 16:30 | 31.61879 | -101.61494 | 17401 ft | 297 kts | 128° |
| 2026-04-26 16:30 | 31.60765 | -101.59486 | 17542 ft | 298 kts | 128° |
| 2026-04-26 16:31 | 31.59632 | -101.57444 | 17686 ft | 299 kts | 128° |
| 2026-04-26 16:31 | 31.58483 | -101.55375 | 17831 ft | 300 kts | 128° |
| 2026-04-26 16:31 | 31.57352 | -101.53339 | 17973 ft | 301 kts | 128° |
| 2026-04-26 16:31 | 31.56205 | -101.51276 | 18119 ft | 302 kts | 128° |
| 2026-04-26 16:32 | 31.55052 | -101.49204 | 18266 ft | 302 kts | 128° |
| 2026-04-26 16:32 | 31.54295 | -101.47845 | 18364 ft | 303 kts | 128° |
| 2026-04-26 16:32 | 31.52764 | -101.45095 | 18554 ft | 303 kts | 128° |
| 2026-04-26 16:32 | 31.51611 | -101.43028 | 18701 ft | 304 kts | 128° |
| 2026-04-26 16:33 | 31.50439 | -101.40927 | 18849 ft | 304 kts | 128° |
| 2026-04-26 16:33 | 31.49285 | -101.38859 | 18997 ft | 305 kts | 128° |
| 2026-04-26 16:33 | 31.48116 | -101.36764 | 19139 ft | 305 kts | 128° |
| 2026-04-26 16:33 | 31.46959 | -101.34695 | 19286 ft | 305 kts | 129° |
| 2026-04-26 16:34 | 31.45793 | -101.32609 | 19420 ft | 306 kts | 129° |
| 2026-04-26 16:34 | 31.44626 | -101.30522 | 19550 ft | 306 kts | 129° |
| 2026-04-26 16:34 | 31.43475 | -101.28465 | 19676 ft | 306 kts | 129° |
| 2026-04-26 16:34 | 31.42304 | -101.26373 | 19806 ft | 306 kts | 129° |
| 2026-04-26 16:35 | 31.41135 | -101.24287 | 19934 ft | 306 kts | 129° |
| 2026-04-26 16:35 | 31.39967 | -101.22204 | 20059 ft | 306 kts | 129° |
| 2026-04-26 16:35 | 31.38799 | -101.20119 | 20175 ft | 306 kts | 129° |
| 2026-04-26 16:35 | 31.37642 | -101.18059 | 20291 ft | 306 kts | 129° |
| 2026-04-26 16:36 | 31.36463 | -101.15959 | 20400 ft | 306 kts | 129° |
| 2026-04-26 16:36 | 31.35310 | -101.13908 | 20509 ft | 306 kts | 129° |
| 2026-04-26 16:36 | 31.34138 | -101.11822 | 20612 ft | 306 kts | 129° |
| 2026-04-26 16:36 | 31.32967 | -101.09740 | 20709 ft | 307 kts | 129° |
| 2026-04-26 16:37 | 31.31791 | -101.07651 | 20808 ft | 306 kts | 129° |
| 2026-04-26 16:37 | 31.30628 | -101.05584 | 20910 ft | 306 kts | 129° |
| 2026-04-26 16:37 | 31.29455 | -101.03501 | 21007 ft | 306 kts | 129° |
| 2026-04-26 16:37 | 31.28673 | -101.02113 | 21065 ft | 306 kts | 129° |
| 2026-04-26 16:38 | 31.27118 | -100.99355 | 21180 ft | 306 kts | 129° |
| 2026-04-26 16:38 | 31.25954 | -100.97293 | 21263 ft | 306 kts | 129° |
| 2026-04-26 16:38 | 31.24769 | -100.95193 | 21353 ft | 305 kts | 129° |
| 2026-04-26 16:38 | 31.23614 | -100.93147 | 21474 ft | 304 kts | 129° |
| 2026-04-26 16:39 | 31.22452 | -100.91089 | 21597 ft | 302 kts | 129° |
| 2026-04-26 16:39 | 31.21293 | -100.89039 | 21720 ft | 301 kts | 129° |
| 2026-04-26 16:39 | 31.20140 | -100.87001 | 21839 ft | 299 kts | 129° |
| 2026-04-26 16:39 | 31.19010 | -100.85003 | 21956 ft | 298 kts | 129° |
| 2026-04-26 16:40 | 31.17870 | -100.82990 | 22080 ft | 296 kts | 129° |
| 2026-04-26 16:40 | 31.16739 | -100.80994 | 22203 ft | 294 kts | 129° |
| 2026-04-26 16:40 | 31.15615 | -100.79011 | 22325 ft | 292 kts | 129° |
| 2026-04-26 16:40 | 31.14501 | -100.77047 | 22443 ft | 290 kts | 130° |
| 2026-04-26 16:41 | 31.13380 | -100.75072 | 22564 ft | 288 kts | 129° |
| 2026-04-26 16:41 | 31.12283 | -100.73138 | 22683 ft | 285 kts | 130° |
| 2026-04-26 16:41 | 31.11195 | -100.71223 | 22803 ft | 282 kts | 130° |
| 2026-04-26 16:41 | 31.10117 | -100.69326 | 22887 ft | 282 kts | 130° |
| 2026-04-26 16:42 | 31.09035 | -100.67427 | 22913 ft | 283 kts | 130° |
| 2026-04-26 16:42 | 31.07945 | -100.65514 | 22922 ft | 285 kts | 130° |
| 2026-04-26 16:42 | 31.06831 | -100.63562 | 22921 ft | 288 kts | 130° |
| 2026-04-26 16:42 | 31.05719 | -100.61612 | 22922 ft | 291 kts | 129° |
| 2026-04-26 16:43 | 31.04599 | -100.59648 | 22928 ft | 294 kts | 129° |
| 2026-04-26 16:43 | 31.03466 | -100.57662 | 22928 ft | 297 kts | 129° |
| 2026-04-26 16:43 | 31.02315 | -100.55645 | 22919 ft | 301 kts | 129° |
| 2026-04-26 16:43 | 31.01150 | -100.53603 | 22917 ft | 304 kts | 129° |
| 2026-04-26 16:44 | 30.99974 | -100.51543 | 22920 ft | 306 kts | 129° |
| 2026-04-26 16:44 | 30.98793 | -100.49474 | 22921 ft | 309 kts | 130° |
| 2026-04-26 16:44 | 30.97588 | -100.47365 | 22920 ft | 312 kts | 129° |
| 2026-04-26 16:44 | 30.96392 | -100.45274 | 22919 ft | 315 kts | 129° |
| 2026-04-26 16:45 | 30.95168 | -100.43134 | 22923 ft | 317 kts | 129° |
| 2026-04-26 16:45 | 30.93938 | -100.40983 | 22926 ft | 320 kts | 129° |
| 2026-04-26 16:45 | 30.92711 | -100.38841 | 22921 ft | 322 kts | 129° |
| 2026-04-26 16:45 | 30.91464 | -100.36664 | 22919 ft | 325 kts | 129° |
| 2026-04-26 16:46 | 30.90198 | -100.34454 | 22922 ft | 327 kts | 130° |
| 2026-04-26 16:46 | 30.88923 | -100.32232 | 22922 ft | 328 kts | 130° |
| 2026-04-26 16:46 | 30.87654 | -100.30018 | 22921 ft | 330 kts | 130° |
| 2026-04-26 16:46 | 30.86375 | -100.27788 | 22919 ft | 331 kts | 129° |
| 2026-04-26 16:47 | 30.85092 | -100.25556 | 22919 ft | 333 kts | 129° |
| 2026-04-26 16:47 | 30.83816 | -100.23336 | 22919 ft | 334 kts | 129° |
| 2026-04-26 16:47 | 30.82523 | -100.21087 | 22920 ft | 336 kts | 129° |
| 2026-04-26 16:47 | 30.81223 | -100.18829 | 22921 ft | 337 kts | 129° |
| 2026-04-26 16:48 | 30.79918 | -100.16563 | 22916 ft | 339 kts | 129° |
| 2026-04-26 16:48 | 30.78605 | -100.14284 | 22922 ft | 340 kts | 129° |
| 2026-04-26 16:48 | 30.77286 | -100.11996 | 22925 ft | 341 kts | 129° |
| 2026-04-26 16:48 | 30.75960 | -100.09698 | 22920 ft | 343 kts | 129° |
| 2026-04-26 16:49 | 30.74631 | -100.07396 | 22922 ft | 344 kts | 129° |
| 2026-04-26 16:49 | 30.73286 | -100.05067 | 22923 ft | 346 kts | 129° |
| 2026-04-26 16:49 | 30.71958 | -100.02768 | 22918 ft | 347 kts | 129° |
| 2026-04-26 16:49 | 30.70609 | -100.00436 | 22923 ft | 348 kts | 129° |
| 2026-04-26 16:50 | 30.69253 | -99.98093 | 22921 ft | 349 kts | 129° |
| 2026-04-26 16:50 | 30.67891 | -99.95740 | 22919 ft | 350 kts | 129° |
| 2026-04-26 16:50 | 30.66531 | -99.93391 | 22923 ft | 351 kts | 129° |
| 2026-04-26 16:50 | 30.65168 | -99.91039 | 22918 ft | 352 kts | 129° |
| 2026-04-26 16:51 | 30.63801 | -99.88683 | 22921 ft | 353 kts | 129° |
| 2026-04-26 16:51 | 30.62433 | -99.86325 | 22926 ft | 353 kts | 129° |
| 2026-04-26 16:51 | 30.61059 | -99.83959 | 22923 ft | 354 kts | 129° |
| 2026-04-26 16:51 | 30.59589 | -99.81672 | 22902 ft | 348 kts | 140° |
| 2026-04-26 16:52 | 30.57768 | -99.79871 | 22921 ft | 342 kts | 149° |
| 2026-04-26 16:52 | 30.56512 | -99.78748 | 22924 ft | 342 kts | 149° |
| 2026-04-26 16:52 | 30.53996 | -99.76507 | 22911 ft | 343 kts | 149° |
| 2026-04-26 16:52 | 30.52121 | -99.74834 | 22914 ft | 344 kts | 149° |
| 2026-04-26 16:53 | 30.50216 | -99.73134 | 22913 ft | 346 kts | 149° |
| 2026-04-26 16:53 | 30.48298 | -99.71420 | 22906 ft | 347 kts | 149° |
| 2026-04-26 16:53 | 30.46386 | -99.69710 | 22910 ft | 348 kts | 149° |
| 2026-04-26 16:53 | 30.44454 | -99.67982 | 22915 ft | 350 kts | 149° |
| 2026-04-26 16:54 | 30.42540 | -99.66270 | 22916 ft | 351 kts | 149° |
| 2026-04-26 16:54 | 30.40604 | -99.64538 | 22919 ft | 353 kts | 148° |
| 2026-04-26 16:54 | 30.38649 | -99.62787 | 22916 ft | 354 kts | 149° |
| 2026-04-26 16:54 | 30.36690 | -99.61034 | 22905 ft | 355 kts | 149° |
| 2026-04-26 16:55 | 30.34697 | -99.59257 | 22565 ft | 367 kts | 148° |
| 2026-04-26 16:55 | 30.32647 | -99.57430 | 22138 ft | 376 kts | 148° |
| 2026-04-26 16:55 | 30.30586 | -99.55585 | 21650 ft | 377 kts | 147° |
| 2026-04-26 16:55 | 30.28502 | -99.53720 | 21156 ft | 378 kts | 147° |
| 2026-04-26 16:56 | 30.24380 | -99.50031 | 20173 ft | 374 kts | 147° |
| 2026-04-26 16:56 | 30.22313 | -99.48183 | 19672 ft | 370 kts | 147° |
| 2026-04-26 16:56 | 30.20289 | -99.46376 | 19170 ft | 367 kts | 147° |
| 2026-04-26 16:57 | 30.18267 | -99.44576 | 18315 ft | 374 kts | 146° |
| 2026-04-26 16:57 | 30.16209 | -99.42744 | 17741 ft | 370 kts | 146° |
| 2026-04-26 16:57 | 30.12197 | -99.39168 | 16901 ft | 357 kts | 146° |
| 2026-04-26 16:58 | 30.10251 | -99.37435 | 16519 ft | 351 kts | 146° |
| 2026-04-26 16:58 | 30.09037 | -99.36237 | 16244 ft | 350 kts | 138° |
| 2026-04-26 16:58 | 30.05734 | -99.30936 | 15304 ft | 344 kts | 126° |
| 2026-04-26 16:59 | 30.04408 | -99.28663 | 14912 ft | 341 kts | 126° |
| 2026-04-26 16:59 | 30.01785 | -99.24165 | 14140 ft | 336 kts | 126° |
| 2026-04-26 17:00 | 29.99182 | -99.19712 | 13352 ft | 331 kts | 126° |
| 2026-04-26 17:00 | 29.96635 | -99.15359 | 12605 ft | 327 kts | 126° |
| 2026-04-26 17:00 | 29.95363 | -99.13187 | 12230 ft | 324 kts | 126° |
| 2026-04-26 17:01 | 29.94104 | -99.11037 | 11851 ft | 321 kts | 126° |
| 2026-04-26 17:01 | 29.92866 | -99.08922 | 11470 ft | 316 kts | 126° |
| 2026-04-26 17:01 | 29.91642 | -99.06834 | 11087 ft | 311 kts | 126° |
| 2026-04-26 17:01 | 29.90438 | -99.04781 | 10702 ft | 307 kts | 126° |
| 2026-04-26 17:02 | 29.89248 | -99.02753 | 10302 ft | 303 kts | 126° |
| 2026-04-26 17:02 | 29.88080 | -99.00766 | 9913 ft | 299 kts | 126° |
| 2026-04-26 17:02 | 29.86918 | -98.98786 | 9513 ft | 295 kts | 125° |
| 2026-04-26 17:02 | 29.85776 | -98.96845 | 9122 ft | 292 kts | 126° |
| 2026-04-26 17:03 | 29.84640 | -98.94912 | 8729 ft | 289 kts | 126° |
| 2026-04-26 17:03 | 29.83528 | -98.93025 | 8341 ft | 287 kts | 126° |
| 2026-04-26 17:03 | 29.82417 | -98.91138 | 7952 ft | 284 kts | 126° |
| 2026-04-26 17:03 | 29.81318 | -98.89267 | 7564 ft | 277 kts | 126° |
| 2026-04-26 17:04 | 29.80259 | -98.87462 | 7157 ft | 269 kts | 126° |
| 2026-04-26 17:04 | 29.79229 | -98.85709 | 6736 ft | 262 kts | 127° |
| 2026-04-26 17:04 | 29.78214 | -98.83986 | 6308 ft | 256 kts | 127° |
| 2026-04-26 17:04 | 29.77236 | -98.82324 | 5875 ft | 252 kts | 127° |
| 2026-04-26 17:05 | 29.76360 | -98.80594 | 5427 ft | 249 kts | 119° |
| 2026-04-26 17:05 | 29.75608 | -98.78802 | 4987 ft | 246 kts | 118° |
| 2026-04-26 17:05 | 29.74888 | -98.77045 | 4552 ft | 242 kts | 117° |
| 2026-04-26 17:05 | 29.74185 | -98.75338 | 4204 ft | 234 kts | 117° |
| 2026-04-26 17:06 | 29.73504 | -98.73693 | 4060 ft | 220 kts | 117° |
| 2026-04-26 17:06 | 29.72703 | -98.72228 | 4015 ft | 213 kts | 132° |
| 2026-04-26 17:06 | 29.71687 | -98.71009 | 4000 ft | 208 kts | 135° |
| 2026-04-26 17:06 | 29.70723 | -98.69805 | 3993 ft | 204 kts | 133° |
| 2026-04-26 17:07 | 29.69797 | -98.68599 | 3989 ft | 200 kts | 133° |
| 2026-04-26 17:07 | 29.68871 | -98.67411 | 3988 ft | 197 kts | 134° |
| 2026-04-26 17:07 | 29.67959 | -98.66231 | 3987 ft | 195 kts | 134° |
| 2026-04-26 17:07 | 29.67060 | -98.65070 | 3988 ft | 194 kts | 133° |
| 2026-04-26 17:08 | 29.66164 | -98.63910 | 3987 ft | 194 kts | 133° |
| 2026-04-26 17:08 | 29.65273 | -98.62758 | 3951 ft | 196 kts | 133° |
| 2026-04-26 17:08 | 29.64345 | -98.61563 | 3730 ft | 204 kts | 133° |
| 2026-04-26 17:08 | 29.63396 | -98.60329 | 3433 ft | 206 kts | 132° |
| 2026-04-26 17:09 | 29.62478 | -98.59134 | 3129 ft | 193 kts | 132° |
| 2026-04-26 17:09 | 29.61897 | -98.58382 | 2988 ft | 183 kts | 133° |
| 2026-04-26 17:09 | 29.60804 | -98.56973 | 2659 ft | 170 kts | 133° |
| 2026-04-26 17:09 | 29.60042 | -98.55991 | 2492 ft | 160 kts | 133° |
| 2026-04-26 17:10 | 29.59299 | -98.55039 | 2256 ft | 157 kts | 133° |
| 2026-04-26 17:10 | 29.58593 | -98.54128 | 2044 ft | 151 kts | 133° |
| 2026-04-26 17:10 | 29.57911 | -98.53244 | 1835 ft | 143 kts | 133° |
| 2026-04-26 17:10 | 29.57255 | -98.52406 | 1668 ft | 141 kts | 133° |
| 2026-04-26 17:11 | 29.56601 | -98.51566 | 1498 ft | 141 kts | 133° |
| 2026-04-26 17:11 | 29.55949 | -98.50719 | 1331 ft | 142 kts | 132° |
| 2026-04-26 17:11 | 29.55302 | -98.49876 | 1150 ft | 142 kts | 132° |
| 2026-04-26 17:11 | 29.54639 | -98.49023 | 957 ft | 141 kts | 132° |
| 2026-04-26 17:12 | 29.53553 | -98.47627 | 796 ft | 47 kts | 131° |
| 2026-04-26 17:12 | 29.53437 | -98.47502 | 795 ft | 13 kts | 182° |
| 2026-04-26 17:13 | 29.53373 | -98.47549 | 796 ft | 0 kts | 221° |
| 2026-04-26 17:13 | 29.53369 | -98.47553 | 796 ft | 5 kts | 217° |
| 2026-04-26 17:13 | 29.53292 | -98.47481 | 795 ft | 5 kts | 131° |
| 2026-04-26 17:14 | 29.53272 | -98.47454 | 795 ft | 6 kts | 130° |
| 2026-04-26 17:14 | 29.53147 | -98.47293 | 794 ft | 17 kts | 131° |
| 2026-04-26 17:14 | 29.53070 | -98.47193 | 792 ft | 15 kts | 131° |
| 2026-04-26 17:15 | 29.52930 | -98.47013 | 789 ft | 15 kts | 131° |
| 2026-04-26 17:15 | 29.52871 | -98.46937 | 788 ft | 9 kts | 131° |
| 2026-04-26 17:15 | 29.52823 | -98.46886 | 788 ft | 8 kts | 177° |
| 2026-04-26 17:16 | 29.52757 | -98.46890 | 788 ft | 11 kts | 134° |
| 2026-04-26 17:16 | 29.52693 | -98.46884 | 789 ft | 10 kts | 213° |
| 2026-04-26 17:16 | 29.52632 | -98.46941 | 790 ft | 12 kts | 218° |
| 2026-04-26 17:16 | 29.52559 | -98.47015 | 792 ft | 13 kts | 220° |
| 2026-04-26 17:17 | 29.52493 | -98.47080 | 793 ft | 10 kts | 220° |
| 2026-04-26 17:17 | 29.52437 | -98.47136 | 794 ft | 10 kts | 219° |
| 2026-04-26 17:17 | 29.52388 | -98.47182 | 797 ft | 7 kts | 220° |
| 2026-04-26 17:17 | 29.52348 | -98.47225 | 798 ft | 9 kts | 223° |
| 2026-04-26 17:18 | 29.52345 | -98.47285 | 798 ft | 6 kts | 294° |
| 2026-04-26 17:18 | 29.52364 | -98.47320 | 798 ft | 3 kts | 313° |
| 2026-04-26 17:18 | 29.52375 | -98.47333 | 798 ft | 1 kts | 311° |
| 2026-04-26 17:18 | 29.52379 | -98.47339 | 798 ft | 0 kts | 311° |